createdAt,value
2022-09-26T00:01:50.781Z,99512.69
2022-09-26T00:04:29.079Z,99511.16
2022-09-26T00:07:02.356Z,99505.50
2022-09-26T00:09:36.352Z,99502.88
2022-09-26T00:12:08.038Z,99495.25
2022-09-26T00:14:39.341Z,99501.59
2022-09-26T00:17:09.188Z,99503.97
2022-09-26T00:19:42.555Z,99500.53
2022-09-26T00:22:13.115Z,99495.69
2022-09-26T00:24:42.937Z,99507.41
2022-09-26T00:27:12.452Z,99501.84
2022-09-26T00:29:41.371Z,99502.03
2022-09-26T00:32:12.182Z,99492.16
2022-09-26T00:34:42.931Z,99489.38
2022-09-26T00:37:14.533Z,99476.41
2022-09-26T00:39:43.871Z,99468.97
2022-09-26T00:42:16.308Z,99469.03
2022-09-26T00:44:57.680Z,99475.31
2022-09-26T00:47:37.562Z,99478.59
2022-09-26T00:50:16.074Z,99479.25
2022-09-26T00:52:55.743Z,99470.94
2022-09-26T00:55:31.162Z,99456.22
2022-09-26T00:58:11.830Z,99451.66
2022-09-26T01:00:43.918Z,99453.13
2022-09-26T01:03:16.959Z,99447.16
2022-09-26T01:05:47.668Z,99452.09
2022-09-26T01:08:19.100Z,99442.06
2022-09-26T01:10:51.090Z,99441.97
2022-09-26T01:13:26.979Z,99441.59
2022-09-26T01:15:56.571Z,99447.41
2022-09-26T01:18:28.884Z,99451.28
2022-09-26T01:21:24.329Z,99447.38
2022-09-26T01:24:32.054Z,99440.88
2022-09-26T01:27:21.519Z,99435.25
2022-09-26T01:30:17.421Z,99430.09
2022-09-26T01:33:10.601Z,99433.94
2022-09-26T01:36:10.609Z,99430.53
2022-09-26T01:38:51.773Z,99425.91
2022-09-26T01:41:42.108Z,99425.25
2022-09-26T01:44:20.315Z,99417.03
2022-09-26T01:46:52.457Z,99421.16
2022-09-26T01:49:35.679Z,99421.78
2022-09-26T01:52:12.694Z,99426.72
2022-09-26T01:55:19.352Z,99422.75
2022-09-26T01:58:00.856Z,99413.94
2022-09-26T02:00:32.502Z,99398.56
2022-09-26T02:03:06.542Z,99391.22
2022-09-26T02:06:05.212Z,99402.41
2022-09-26T02:08:53.922Z,99405.44
2022-09-26T02:11:27.385Z,99392.66
2022-09-26T02:14:07.148Z,99391.56
2022-09-26T02:16:47.577Z,99388.41
2022-09-26T02:19:24.798Z,99392.94
2022-09-26T02:21:55.500Z,99386.91
2022-09-26T02:24:24.804Z,99391.81
2022-09-26T02:26:54.547Z,99408.78
2022-09-26T02:29:24.127Z,99420.91
2022-09-26T02:32:16.143Z,99425.03
2022-09-26T02:34:47.611Z,99425.75
2022-09-26T02:37:16.952Z,99431.34
2022-09-26T02:39:46.612Z,99429.28
2022-09-26T02:42:38.803Z,99411.38
2022-09-26T02:45:33.258Z,99398.44
2022-09-26T02:48:24.996Z,99381.47
2022-09-26T02:51:10.217Z,99378.84
2022-09-26T02:54:01.904Z,99393.00
2022-09-26T02:56:52.041Z,99378.53
2022-09-26T02:59:47.420Z,99393.00
2022-09-26T03:02:37.928Z,99403.62
2022-09-26T03:05:13.392Z,99399.06
2022-09-26T03:07:52.117Z,99387.69
2022-09-26T03:10:20.013Z,99381.06
2022-09-26T03:12:49.736Z,99385.44
2022-09-26T03:15:20.179Z,99377.44
2022-09-26T03:17:52.690Z,99380.34
2022-09-26T03:20:23.321Z,99381.31
2022-09-26T03:22:52.296Z,99381.56
2022-09-26T03:25:23.928Z,99377.34
2022-09-26T03:27:54.830Z,99369.59
2022-09-26T03:30:24.242Z,99367.41
2022-09-26T03:32:54.627Z,99355.50
2022-09-26T03:35:23.640Z,99345.47
2022-09-26T03:37:52.874Z,99348.72
2022-09-26T03:40:22.805Z,99344.72
2022-09-26T03:42:51.362Z,99341.88
2022-09-26T03:45:21.317Z,99338.03
2022-09-26T03:47:57.482Z,99334.47
2022-09-26T03:50:27.838Z,99330.25
2022-09-26T03:52:56.546Z,99330.34
2022-09-26T03:55:24.758Z,99319.81
2022-09-26T03:57:53.099Z,99319.56
2022-09-26T04:00:22.816Z,99316.16
2022-09-26T04:02:51.906Z,99311.00
2022-09-26T04:05:20.461Z,99301.63
2022-09-26T04:07:48.542Z,99309.88
2022-09-26T04:10:17.215Z,99302.84
2022-09-26T04:12:46.276Z,99300.78
2022-09-26T04:15:16.206Z,99295.62
2022-09-26T04:17:44.846Z,99298.88
2022-09-26T04:20:14.061Z,99292.41
2022-09-26T04:22:42.849Z,99302.28
2022-09-26T04:25:12.160Z,99302.84
2022-09-26T04:27:39.907Z,99300.03
2022-09-26T04:30:11.923Z,99293.63
2022-09-26T04:32:42.093Z,99298.53
2022-09-26T04:35:14.486Z,99288.28
2022-09-26T04:37:43.326Z,99296.03
2022-09-26T04:40:11.590Z,99289.66
2022-09-26T04:42:42.744Z,99286.69
2022-09-26T04:45:11.972Z,99280.16
2022-09-26T04:47:39.896Z,99287.63
2022-09-26T04:50:12.901Z,99296.16
2022-09-26T04:52:42.767Z,99299.94
2022-09-26T04:55:12.398Z,99299.34
2022-09-26T04:57:40.679Z,99317.88
2022-09-26T05:00:13.207Z,99310.22
2022-09-26T05:02:42.298Z,99309.22
2022-09-26T05:05:11.449Z,99311.09
2022-09-26T05:07:41.282Z,99309.78
2022-09-26T05:10:10.978Z,99298.78
2022-09-26T05:12:39.878Z,99309.59
2022-09-26T05:15:09.585Z,99315.97
2022-09-26T05:17:37.898Z,99305.81
2022-09-26T05:20:11.241Z,99308.28
2022-09-26T05:22:39.459Z,99305.75
2022-09-26T05:25:26.480Z,99299.94
2022-09-26T05:27:54.963Z,99300.78
2022-09-26T05:30:25.979Z,99290.28
2022-09-26T05:32:54.567Z,99293.00
2022-09-26T05:35:23.990Z,99291.09
2022-09-26T05:38:00.442Z,99296.84
2022-09-26T05:40:50.655Z,99307.72
2022-09-26T05:43:19.467Z,99299.19
2022-09-26T05:45:50.663Z,99298.31
2022-09-26T05:48:20.916Z,99309.78
2022-09-26T05:50:51.592Z,99319.56
2022-09-26T05:53:19.844Z,99314.81
2022-09-26T05:55:50.808Z,99313.47
2022-09-26T05:58:21.926Z,99311.84
2022-09-26T06:00:53.591Z,99304.75
2022-09-26T06:03:23.132Z,99299.03
2022-09-26T06:05:52.245Z,99301.88
2022-09-26T06:08:21.127Z,99280.69
2022-09-26T06:10:49.508Z,99273.34
2022-09-26T06:13:17.445Z,99267.13
2022-09-26T06:15:49.221Z,99270.47
2022-09-26T06:18:18.385Z,99270.69
2022-09-26T06:20:46.633Z,99264.88
2022-09-26T06:23:15.215Z,99264.59
2022-09-26T06:25:44.565Z,99264.59
2022-09-26T06:28:14.122Z,99268.41
2022-09-26T06:30:42.564Z,99268.34
2022-09-26T06:33:11.933Z,99269.97
2022-09-26T06:35:43.849Z,99276.50
2022-09-26T06:38:12.806Z,99285.94
2022-09-26T06:40:40.797Z,99287.09
2022-09-26T06:43:09.317Z,99287.19
2022-09-26T06:45:46.026Z,99288.59
2022-09-26T06:48:21.025Z,99291.38
2022-09-26T06:51:00.235Z,99295.16
2022-09-26T06:53:28.942Z,99280.97
2022-09-26T06:56:01.786Z,99282.44
2022-09-26T06:58:32.541Z,99280.56
2022-09-26T07:01:02.318Z,99281.22
2022-09-26T07:03:32.453Z,99286.78
2022-09-26T07:06:00.866Z,99275.78
2022-09-26T07:08:57.464Z,99280.19
2022-09-26T07:14:36.827Z,99276.41
2022-09-26T07:16:57.790Z,99277.47
2022-09-26T07:19:25.958Z,99277.37
2022-09-26T07:21:55.100Z,99273.72
2022-09-26T07:24:23.519Z,99275.38
2022-09-26T07:27:23.144Z,99272.72
2022-09-26T07:30:11.502Z,99278.50
2022-09-26T07:33:24.451Z,99279.75
2022-09-26T07:36:13.599Z,99297.28
2022-09-26T07:39:04.341Z,99299.56
2022-09-26T07:41:50.121Z,99300.78
2022-09-26T07:47:49.198Z,99311.38
2022-09-26T07:50:48.451Z,99317.47
2022-09-26T09:52:20.292Z,99290.13
2022-09-26T09:55:05.571Z,99281.53
2022-09-26T09:58:18.085Z,99281.56
2022-09-26T10:01:14.479Z,99282.53
2022-09-26T10:04:44.237Z,99279.72
2022-09-26T10:07:47.704Z,99280.19
2022-09-26T10:11:09.293Z,99274.88
2022-09-26T10:14:02.217Z,99270.53
2022-09-26T10:17:18.273Z,99260.94
2022-09-26T10:20:43.531Z,99272.66
2022-09-26T10:23:59.237Z,99273.62
2022-09-26T10:26:44.900Z,99277.06
2022-09-26T10:29:34.665Z,99290.03
2022-09-26T10:32:27.973Z,99281.22
2022-09-26T10:35:25.459Z,99273.94
2022-09-26T11:38:39.150Z,99276.37
2022-09-26T11:44:27.257Z,99279.31
2022-09-26T11:47:50.222Z,99282.44
2022-09-26T11:50:59.265Z,99280.47
2022-09-26T12:26:53.622Z,99221.06
2022-09-26T12:29:55.607Z,99227.53
2022-09-26T12:33:18.827Z,99225.63
2022-09-26T12:36:04.277Z,99225.47
2022-09-26T12:38:56.474Z,99216.69
2022-09-26T12:41:40.512Z,99222.81
2022-09-26T12:44:22.854Z,99222.22
2022-09-26T12:47:02.794Z,99228.84
2022-09-26T12:49:33.644Z,99221.97
2022-09-26T12:52:30.461Z,99216.34
2022-09-26T12:55:25.584Z,99199.13
2022-09-26T12:58:15.128Z,99198.13
2022-09-26T13:01:03.258Z,99207.16
2022-09-26T13:04:05.149Z,99201.37
2022-09-26T13:07:08.047Z,99203.50
2022-09-26T13:10:00.324Z,99210.69
2022-09-26T13:12:46.327Z,99206.31
2022-09-26T13:15:31.528Z,99213.03
2022-09-26T13:18:04.517Z,99209.78
2022-09-26T13:20:40.924Z,99211.84
2022-09-26T13:23:30.508Z,99208.47
2022-09-26T13:26:15.635Z,99205.03
2022-09-26T13:29:17.149Z,99199.38
2022-09-26T13:32:15.981Z,99205.94
2022-09-26T13:34:55.642Z,99199.31
2022-09-26T13:37:36.603Z,99202.69
2022-09-26T13:40:25.469Z,99206.47
2022-09-26T13:43:07.610Z,99203.00
2022-09-26T13:46:02.647Z,99207.09
2022-09-26T13:48:40.865Z,99213.81
2022-09-26T13:51:18.664Z,99207.00
2022-09-26T13:54:11.786Z,99216.94
2022-09-26T13:56:47.607Z,99211.19
2022-09-26T13:59:18.240Z,99201.66
2022-09-26T14:02:25.685Z,99188.97
2022-09-26T14:05:20.394Z,99192.03
2022-09-26T14:08:46.901Z,99192.03
2022-09-26T14:11:20.163Z,99190.44
2022-09-26T14:13:49.454Z,99198.19
2022-09-26T14:16:27.849Z,99190.91
2022-09-26T14:19:16.393Z,99177.09
2022-09-26T14:22:25.887Z,99171.38
2022-09-26T14:25:00.179Z,99164.94
2022-09-26T14:27:38.031Z,99161.00
2022-09-26T14:30:25.548Z,99158.09
2022-09-26T14:33:11.299Z,99157.25
2022-09-26T14:35:39.787Z,99155.44
2022-09-26T14:38:20.846Z,99155.41
2022-09-26T14:40:58.206Z,99153.84
2022-09-26T14:43:37.304Z,99150.78
2022-09-26T14:46:23.765Z,99145.59
2022-09-26T14:49:05.494Z,99148.37
2022-09-26T14:51:56.773Z,99144.25
2022-09-26T14:54:39.804Z,99146.19
2022-09-26T14:57:21.995Z,99160.75
2022-09-26T15:00:36.654Z,99153.75
2022-09-26T15:03:24.475Z,99153.03
2022-09-26T15:06:04.658Z,99158.50
2022-09-26T15:08:39.456Z,99146.00
2022-09-26T15:11:08.238Z,99135.97
2022-09-26T15:13:43.441Z,99132.59
2022-09-26T15:16:29.532Z,99133.72
2022-09-26T15:19:01.361Z,99129.41
2022-09-26T15:21:37.622Z,99123.53
2022-09-26T15:24:26.529Z,99120.22
2022-09-26T15:26:58.608Z,99129.28
2022-09-26T15:29:27.665Z,99132.50
2022-09-26T15:31:57.776Z,99119.50
2022-09-26T15:34:33.686Z,99133.78
2022-09-26T15:37:11.642Z,99126.75
2022-09-26T15:39:42.228Z,99120.59
2022-09-26T15:42:39.433Z,99116.13
2022-09-26T15:45:23.320Z,99120.19
2022-09-26T15:48:13.267Z,99131.22
2022-09-26T15:50:45.180Z,99129.94
2022-09-26T15:53:20.343Z,99127.06
2022-09-26T15:56:01.912Z,99121.72
2022-09-26T15:58:35.048Z,99120.91
2022-09-26T16:01:03.134Z,99128.22
2022-09-26T16:03:44.901Z,99125.97
2022-09-26T16:06:24.836Z,99129.25
2022-09-26T16:09:25.715Z,99135.13
2022-09-26T16:12:00.576Z,99139.34
2022-09-26T16:14:41.754Z,99139.34
2022-09-26T16:17:19.115Z,99129.28
2022-09-26T16:19:53.927Z,99133.50
2022-09-26T16:22:21.969Z,99132.63
2022-09-26T16:24:51.705Z,99128.31
2022-09-26T16:27:25.619Z,99130.13
2022-09-26T16:30:02.617Z,99139.87
2022-09-26T16:32:32.991Z,99139.25
2022-09-26T16:35:17.503Z,99136.66
2022-09-26T16:37:57.658Z,99127.44
2022-09-26T16:40:28.148Z,99133.50
2022-09-26T16:43:14.384Z,99124.31
2022-09-26T16:45:50.398Z,99123.25
2022-09-26T16:48:50.311Z,99118.06
2022-09-26T16:51:30.132Z,99117.78
2022-09-26T16:54:07.805Z,99127.25
2022-09-26T16:56:41.509Z,99124.13
2022-09-26T16:59:36.779Z,99119.88
2022-09-26T17:02:09.288Z,99123.31
2022-09-26T17:04:37.500Z,99124.41
2022-09-26T17:07:14.949Z,99128.25
2022-09-26T17:09:44.168Z,99127.19
2022-09-26T17:12:18.863Z,99130.44
2022-09-26T17:14:52.119Z,99133.56
2022-09-26T17:17:23.064Z,99138.22
2022-09-26T17:19:58.214Z,99149.34
2022-09-26T17:22:28.411Z,99150.19
2022-09-26T17:24:56.617Z,99141.28
2022-09-26T17:27:27.314Z,99143.47
2022-09-26T17:30:00.237Z,99144.53
2022-09-26T17:32:33.072Z,99144.12
2022-09-26T17:35:05.128Z,99142.81
2022-09-26T17:37:33.600Z,99149.72
2022-09-26T17:40:06.906Z,99137.81
2022-09-26T17:42:34.886Z,99140.44
2022-09-26T17:45:03.725Z,99140.91
2022-09-26T17:47:32.789Z,99141.44
2022-09-26T17:50:00.851Z,99130.78
2022-09-26T17:52:32.277Z,99142.28
2022-09-26T17:55:02.396Z,99138.19
2022-09-26T17:57:38.199Z,99138.97
2022-09-26T18:00:13.217Z,99133.50
2022-09-26T18:02:48.618Z,99131.34
2022-09-26T18:05:22.817Z,99131.91
2022-09-26T18:07:54.019Z,99133.91
2022-09-26T18:10:25.118Z,99130.22
2022-09-26T18:12:58.757Z,99141.81
2022-09-26T18:15:27.978Z,99140.97
2022-09-26T18:17:58.125Z,99139.00
2022-09-26T18:20:37.799Z,99142.16
2022-09-26T18:23:08.614Z,99133.63
2022-09-26T18:25:38.065Z,99133.13
2022-09-26T18:28:12.947Z,99141.75
2022-09-26T18:30:43.223Z,99132.66
2022-09-26T18:33:12.966Z,99137.41
2022-09-26T18:35:44.520Z,99137.00
2022-09-26T18:38:13.890Z,99141.75
2022-09-26T18:40:47.691Z,99131.59
2022-09-26T18:43:20.046Z,99131.31
2022-09-26T18:45:49.650Z,99135.13
2022-09-26T18:48:32.897Z,99131.50
2022-09-26T18:51:03.761Z,99136.44
2022-09-26T18:53:37.704Z,99136.00
2022-09-26T18:56:37.034Z,99134.19
2022-09-26T18:59:10.653Z,99133.03
2022-09-26T19:01:42.974Z,99131.00
2022-09-26T19:04:17.482Z,99139.84
2022-09-26T19:06:48.570Z,99130.78
2022-09-26T19:09:20.177Z,99130.19
2022-09-26T19:11:48.797Z,99129.66
2022-09-26T19:14:18.668Z,99128.88
2022-09-26T19:16:48.800Z,99137.53
2022-09-26T19:19:18.231Z,99148.81
2022-09-26T19:21:48.064Z,99149.41
2022-09-26T19:24:31.708Z,99153.91
2022-09-26T19:27:06.656Z,99159.72
2022-09-26T19:29:41.167Z,99160.03
2022-09-26T19:32:19.644Z,99151.03
2022-09-26T19:34:54.698Z,99155.31
2022-09-26T19:37:24.565Z,99142.91
2022-09-26T19:39:52.903Z,99155.97
2022-09-26T19:42:21.235Z,99148.63
2022-09-26T19:44:51.665Z,99149.47
2022-09-26T19:47:22.322Z,99154.28
2022-09-26T19:49:51.762Z,99158.75
2022-09-26T19:52:22.331Z,99161.97
2022-09-26T19:54:50.838Z,99162.41
2022-09-26T19:57:20.034Z,99155.72
2022-09-26T19:59:49.006Z,99160.47
2022-09-26T20:02:24.576Z,99154.09
2022-09-26T20:04:53.391Z,99149.97
2022-09-26T20:07:21.406Z,99152.09
2022-09-26T20:09:49.757Z,99142.97
2022-09-26T20:12:18.269Z,99138.31
2022-09-26T20:14:46.440Z,99144.91
2022-09-26T20:17:25.483Z,99139.22
2022-09-26T20:19:59.069Z,99136.59
2022-09-26T20:22:29.983Z,99134.34
2022-09-26T20:25:02.412Z,99138.25
2022-09-26T20:27:32.741Z,99143.22
2022-09-26T20:30:21.282Z,99141.03
2022-09-26T20:32:49.681Z,99145.53
2022-09-26T20:35:18.755Z,99142.84
2022-09-26T20:37:47.315Z,99136.59
2022-09-26T20:40:22.791Z,99138.97
2022-09-26T20:42:57.784Z,99134.34
2022-09-26T20:45:30.137Z,99136.97
2022-09-26T20:47:59.414Z,99147.16
2022-09-26T20:50:34.130Z,99141.25
2022-09-26T20:53:10.749Z,99142.56
2022-09-26T20:55:43.846Z,99143.19
2022-09-26T20:58:14.924Z,99141.44
2022-09-26T21:00:43.801Z,99144.97
2022-09-26T21:03:13.705Z,99137.06
2022-09-26T21:05:43.676Z,99142.84
2022-09-26T21:08:28.740Z,99132.69
2022-09-26T21:10:58.633Z,99137.75
2022-09-26T21:13:27.712Z,99130.91
2022-09-26T21:15:57.699Z,99127.56
2022-09-26T21:18:27.693Z,99122.22
2022-09-26T21:21:05.703Z,99118.47
2022-09-26T21:23:42.121Z,99117.09
2022-09-26T21:26:31.467Z,99119.03
2022-09-26T21:28:59.682Z,99111.44
2022-09-26T21:31:30.562Z,99114.75
2022-09-26T21:34:00.468Z,99118.38
2022-09-26T21:36:35.023Z,99119.22
2022-09-26T21:39:03.786Z,99114.63
2022-09-26T21:41:33.582Z,99115.00
2022-09-26T21:44:04.987Z,99104.22
2022-09-26T21:46:34.257Z,99105.38
2022-09-26T21:49:02.503Z,99107.44
2022-09-26T21:51:31.228Z,99104.94
2022-09-26T21:54:08.669Z,99108.72
2022-09-26T21:56:49.378Z,99100.38
2022-09-26T21:59:19.925Z,99094.69
2022-09-26T22:01:47.786Z,99096.28
2022-09-26T22:04:18.994Z,99097.50
2022-09-26T22:06:48.350Z,99092.56
2022-09-26T22:09:17.429Z,99081.69
2022-09-26T22:11:46.025Z,99081.13
2022-09-26T22:14:18.740Z,99081.91
2022-09-26T22:16:48.278Z,99072.13
2022-09-26T22:19:18.890Z,99072.47
2022-09-26T22:21:51.843Z,99074.38
2022-09-26T22:24:23.495Z,99076.13
2022-09-26T22:26:57.500Z,99073.38
2022-09-26T22:29:28.245Z,99075.00
2022-09-26T22:31:59.734Z,99070.97
2022-09-26T22:34:31.345Z,99058.88
2022-09-26T22:37:01.956Z,99066.03
2022-09-26T22:39:32.449Z,99057.72
2022-09-26T22:42:04.412Z,99043.94
2022-09-26T22:44:37.847Z,99039.81
2022-09-26T22:47:09.898Z,99039.75
2022-09-26T22:49:40.276Z,99029.62
2022-09-26T22:52:11.866Z,99035.09
2022-09-26T22:54:42.106Z,99025.31
2022-09-26T22:57:14.077Z,99028.91
2022-09-26T22:59:44.068Z,99025.44
2022-09-26T23:02:16.063Z,99023.41
2022-09-26T23:04:48.951Z,99020.22
2022-09-26T23:07:19.790Z,99016.00
2022-09-26T23:09:50.105Z,99011.91
2022-09-26T23:12:22.321Z,98999.69
2022-09-26T23:14:53.494Z,98996.84
2022-09-26T23:17:36.824Z,98988.84
2022-09-26T23:20:07.903Z,98982.13
2022-09-26T23:22:41.734Z,98974.94
2022-09-26T23:25:13.887Z,98984.25
2022-09-26T23:27:45.210Z,98980.81
2022-09-26T23:30:15.635Z,98984.75
2022-09-26T23:32:48.590Z,98975.19
2022-09-26T23:35:19.294Z,98973.97
2022-09-26T23:37:51.793Z,98967.81
2022-09-26T23:40:22.352Z,98963.38
2022-09-26T23:42:53.343Z,98960.44
2022-09-26T23:45:23.366Z,98965.31
2022-09-26T23:47:55.278Z,98970.34
2022-09-26T23:50:24.138Z,98971.94
2022-09-26T23:52:55.562Z,98960.97
2022-09-26T23:55:25.125Z,98953.72
2022-09-26T23:58:00.417Z,98955.47
